Estació municipal de Susqueda - Veïnat del Coll (La Selva, )

Consulta les dades en temps real de l'estació municipal de Susqueda - Veïnat del Coll





Hora UTC 08:15
Temperatura 28.4 ºC
Humitat 31.5 %
Pressió 1025.7 hPa
Pluja 0.0 mm
Velocitat vent 4.7 km/h
Direcció vent SE
Radiació solar 463.2 W/m²

Dades diàries 2026-09-05



Hora UTC (hivern +1h; estiu +2h)
Temperatura (ºC) Humitat (%) Pressió (hPa) Velocitat vent (km/h) Precipitació (mm) Radiació solar (W/m²)
Hora UTC Aire Humitat Pressió Vel. Dir. Vel. Max Dir. Intent. màx 5 min. Rad. Sol.
00:05 24.1 61.1 1024.8 4.6 SW 4.6 SSW 0.0 0.1
00:10 24.0 60.4 1024.8 4.5 SW 8.8 SSW 0.0 0.1
00:15 23.9 59.5 1024.8 4.6 SW 9.2 WSW 0.0 0.1
00:20 23.9 58.8 1024.8 4.8 SW 8.8 SSW 0.0 0.1
00:25 24.0 57.6 1024.7 4.5 SW 9.9 SSW 0.0 0.1
00:30 23.8 57.5 1024.7 4.3 SW 7.8 W 0.0 0.1
00:35 23.9 57.0 1024.7 4.9 SW 9.2 SW 0.0 0.1
00:40 23.8 56.4 1024.7 4.5 SW 9.5 SW 0.0 0.1
00:45 23.8 56.1 1024.7 4.9 SW 8.5 SSW 0.0 0.1
00:50 23.9 55.3 1024.7 4.1 SW 7.8 SSW 0.0 0.1
00:55 24.0 55.2 1024.7 3.1 SW 7.1 SSW 0.0 0.1
01:00 23.9 55.2 1024.7 2.7 SW 6.7 SW 0.0 0.1
01:05 23.8 55.8 1024.7 2.1 WSW 6.7 W 0.0 0.1
01:10 23.6 57.0 1024.7 1.8 SW 6.0 SSW 0.0 0.1
01:15 23.5 57.7 1024.7 1.3 SW 3.5 S 0.0 0.1
01:20 23.3 57.7 1024.7 1.2 SW 3.2 SW 0.0 0.1
01:25 23.2 57.4 1024.7 1.9 W 3.9 W 0.0 0.1
01:30 23.1 57.6 1024.7 2.4 W 4.6 W 0.0 0.1
01:35 23.0 56.9 1024.8 0.5 W 2.5 WNW 0.0 0.1
01:40 23.3 55.6 1024.8 0.0 NNE 0.0 N 0.0 0.1
01:45 23.3 55.1 1024.7 0.0 SW 1.1 WSW 0.0 0.1
01:50 23.5 54.4 1024.7 0.4 SSW 2.5 SSW 0.0 0.1
01:55 23.5 54.3 1024.8 1.2 SSE 2.8 SE 0.0 0.1
02:00 23.8 53.5 1024.8 2.0 S 3.5 SSW 0.0 0.1
02:05 24.1 52.8 1024.8 3.1 S 4.2 S 0.0 0.1
02:10 23.9 52.8 1024.8 3.1 S 4.9 SE 0.0 0.1
02:15 24.0 51.8 1024.8 3.4 SSE 6.0 SE 0.0 0.1
02:20 24.2 51.2 1024.8 3.4 S 6.0 SE 0.0 0.1
02:25 24.1 51.7 1024.7 3.5 S 4.6 SSW 0.0 0.1
02:30 24.1 51.6 1024.7 3.2 SSE 4.9 SE 0.0 0.1
02:35 24.1 51.6 1024.7 3.9 SSE 7.1 SE 0.0 0.1
02:40 24.1 51.5 1024.7 3.7 SSE 6.7 SE 0.0 0.1
02:45 24.1 50.9 1024.6 3.7 SSE 7.4 SE 0.0 0.1
02:50 24.1 49.7 1024.6 3.7 S 6.0 SSE 0.0 0.1
02:55 23.8 48.1 1024.6 3.9 S 6.4 SE 0.0 0.1
03:00 23.8 47.1 1024.6 4.5 SSE 8.1 SSE 0.0 0.1
03:05 24.0 46.0 1024.6 5.6 SE 8.8 SE 0.0 0.1
03:10 24.1 45.5 1024.6 3.9 SSE 7.1 SE 0.0 0.1
03:15 24.0 45.2 1024.6 3.5 SSE 5.6 SE 0.0 0.1
03:20 23.9 44.6 1024.6 2.9 S 4.6 S 0.0 0.1
03:25 23.9 45.0 1024.6 2.6 S 3.5 S 0.0 0.1
03:30 23.9 47.0 1024.6 2.7 S 3.5 S 0.0 0.1
03:35 23.8 49.0 1024.7 2.9 S 4.9 SSE 0.0 0.1
03:40 23.6 50.7 1024.7 3.2 SSW 4.9 SSW 0.0 0.1
03:45 23.5 50.3 1024.6 3.5 SSW 7.4 SSW 0.0 0.1
03:50 23.6 44.0 1024.6 5.5 SSW 7.8 S 0.0 0.1
03:55 24.0 39.4 1024.6 5.4 SSW 8.8 SSW 0.0 0.1
04:00 24.2 39.3 1024.6 4.3 SSW 6.7 S 0.0 0.1
04:05 24.3 41.2 1024.5 5.1 SSW 9.2 SSW 0.0 0.1
04:10 24.5 40.9 1024.5 5.1 SSW 9.2 S 0.0 0.1
04:15 24.6 39.1 1024.5 6.0 S 9.2 S 0.0 0.1
04:20 24.6 37.6 1024.5 6.7 S 9.9 S 0.0 0.1
04:25 24.6 36.2 1024.5 6.8 S 10.9 S 0.0 0.1
04:30 24.5 35.9 1024.5 6.7 S 11.6 S 0.0 0.1
04:35 24.4 35.7 1024.5 7.1 S 12.0 S 0.0 0.1
04:40 24.4 35.6 1024.5 6.8 S 10.9 S 0.0 0.1
04:45 24.3 35.8 1024.6 6.1 S 10.9 SSE 0.0 0.1
04:50 24.3 35.9 1024.6 7.0 SSE 12.0 SSE 0.0 0.1
04:55 24.5 35.3 1024.6 8.1 S 13.8 SSE 0.0 0.1
05:00 24.8 35.1 1024.6 7.9 SSE 13.4 SSE 0.0 0.3
05:05 25.0 35.2 1024.6 6.8 SSE 12.7 SSE 0.0 0.7
05:10 25.0 35.7 1024.6 6.3 SSE 12.0 SSE 0.0 1.3
05:15 25.0 35.6 1024.8 6.8 S 12.0 S 0.0 2.3
05:20 25.0 35.7 1024.8 6.8 S 13.8 SSE 0.0 3.6
05:25 25.0 36.7 1024.9 7.0 S 13.4 SSE 0.0 5.5
05:30 25.0 36.8 1024.9 6.9 S 12.7 S 0.0 8.3
05:35 25.0 35.8 1024.9 7.2 S 12.7 S 0.0 14.0
05:40 25.1 35.0 1024.9 7.6 S 13.4 S 0.0 23.0
05:45 25.2 35.0 1024.9 6.5 S 14.5 SSE 0.0 32.8
05:50 25.3 35.0 1024.9 7.0 S 13.4 S 0.0 40.9
05:55 25.4 34.6 1025.0 7.2 S 13.8 SSE 0.0 52.0
06:00 25.5 35.2 1025.0 6.6 S 14.1 S 0.0 57.1
06:05 25.5 35.5 1025.1 7.3 SSE 13.8 S 0.0 56.7
06:10 25.5 35.4 1025.1 6.9 SSE 13.4 SSE 0.0 63.2
06:15 25.4 35.5 1025.1 5.9 SSE 11.6 SSE 0.0 65.3
06:20 25.4 34.8 1025.1 7.3 S 14.1 S 0.0 78.6
06:25 25.5 34.7 1025.2 7.9 S 13.8 SSE 0.0 60.5
06:30 25.4 34.9 1025.2 8.3 S 14.5 S 0.0 93.5
06:35 25.4 36.0 1025.2 8.3 SSE 16.6 SSE 0.0 85.4
06:40 25.2 37.4 1025.2 8.9 SSE 15.5 SSE 0.0 109.8
06:45 25.1 37.6 1025.3 9.1 SSE 16.6 SE 0.0 127.0
06:50 25.2 35.9 1025.3 8.4 SSE 16.2 S 0.0 125.6
06:55 25.4 35.3 1025.4 7.6 SSE 16.6 SSE 0.0 184.9
07:00 25.8 34.5 1025.4 8.3 SSE 18.0 SE 0.0 218.5
07:05 26.2 34.2 1025.5 7.3 SSE 16.2 SE 0.0 253.2
07:10 26.5 34.1 1025.5 6.5 SE 17.3 SE 0.0 270.3
07:15 26.8 33.7 1025.5 7.2 SE 20.5 SE 0.0 287.6
07:20 27.0 33.3 1025.5 6.7 SE 15.2 SE 0.0 306.2
07:25 27.1 33.4 1025.5 7.3 SE 15.5 SE 0.0 321.1
07:30 27.3 32.7 1025.5 8.4 SE 20.5 ESE 0.0 332.8
07:35 27.3 32.7 1025.5 7.5 SSE 16.2 S 0.0 335.2
07:40 27.4 32.6 1025.5 7.6 SE 14.8 ESE 0.0 361.5
07:45 27.5 32.5 1025.6 7.5 SE 19.1 SE 0.0 379.4
07:50 27.6 32.4 1025.6 5.6 SE 15.5 ESE 0.0 393.8
07:55 27.9 32.1 1025.6 6.1 SE 16.2 SE 0.0 404.6
08:00 27.9 32.0 1025.6 6.3 SE 15.5 SE 0.0 422.0
08:05 28.0 32.0 1025.6 5.5 SSE 13.1 SE 0.0 436.0
08:10 28.2 31.9 1025.6 3.5 SE 9.9 ESE 0.0 449.7
08:15 28.4 31.5 1025.7 4.7 SE 12.0 SE 0.0 463.2
Màxima 28.4 61.1 1025.7 9.1 SSE 20.5 ESE 0.0 463.2
Mínima 20 31.5 1024.5
Total 0.0